createdAt,value
2022-08-21T00:00:43.938Z,84.13
2022-08-21T00:05:50.504Z,83.62
2022-08-21T00:10:52.469Z,83.78
2022-08-21T00:15:54.389Z,83.60
2022-08-21T00:20:56.181Z,83.73
2022-08-21T00:25:58.034Z,83.44
2022-08-21T00:31:00.176Z,83.52
2022-08-21T00:36:02.092Z,83.67
2022-08-21T00:41:36.423Z,83.52
2022-08-21T00:46:28.809Z,83.23
2022-08-21T00:51:38.907Z,83.22
2022-08-21T00:56:41.131Z,83.14
2022-08-21T01:01:45.142Z,83.41
2022-08-21T01:06:46.940Z,82.99
2022-08-21T01:11:48.852Z,83.66
2022-08-21T01:16:53.585Z,83.27
2022-08-21T01:21:56.033Z,83.10
2022-08-21T01:26:59.553Z,83.44
2022-08-21T01:32:07.112Z,83.70
2022-08-21T01:37:09.500Z,83.65
2022-08-21T01:42:11.237Z,83.10
2022-08-21T01:47:15.175Z,83.31
2022-08-21T01:52:20.194Z,83.81
2022-08-21T01:57:22.636Z,83.67
2022-08-21T02:02:28.238Z,83.33
2022-08-21T02:07:37.220Z,83.73
2022-08-21T02:12:38.975Z,83.91
2022-08-21T02:17:47.330Z,83.55
2022-08-21T02:22:50.531Z,84.16
2022-08-21T02:27:52.726Z,83.99
2022-08-21T02:32:55.001Z,83.82
2022-08-21T02:38:00.740Z,84.05
2022-08-21T02:43:04.227Z,83.95
2022-08-21T02:48:13.057Z,83.96
2022-08-21T02:53:17.552Z,84.18
2022-08-21T02:58:25.917Z,84.32
2022-08-21T03:03:30.081Z,84.12
2022-08-21T03:08:31.921Z,84.20
2022-08-21T03:13:33.613Z,84.57
2022-08-21T03:18:36.374Z,84.49
2022-08-21T03:23:40.931Z,84.60
2022-08-21T03:28:43.205Z,84.40
2022-08-21T03:33:45.068Z,84.69
2022-08-21T03:38:46.907Z,84.75
2022-08-21T03:43:48.756Z,84.95
2022-08-21T03:48:50.868Z,84.69
2022-08-21T03:53:52.945Z,85.07
2022-08-21T03:58:54.589Z,84.56
2022-08-21T04:03:56.616Z,84.98
2022-08-21T04:08:58.315Z,84.88
2022-08-21T04:13:59.965Z,84.58
2022-08-21T04:19:02.649Z,84.79
2022-08-21T04:24:06.321Z,84.65
2022-08-21T04:29:08.276Z,85.11
2022-08-21T04:34:12.307Z,84.89
2022-08-21T04:39:14.186Z,84.76
2022-08-21T04:44:16.165Z,85.02
2022-08-21T04:49:18.354Z,84.92
2022-08-21T04:54:23.725Z,84.41
2022-08-21T04:59:29.212Z,84.40
2022-08-21T05:04:34.111Z,84.14
2022-08-21T05:09:36.437Z,83.50
2022-08-21T05:14:38.191Z,82.10
2022-08-21T05:19:40.624Z,80.82
2022-08-21T05:24:42.465Z,80.09
2022-08-21T05:29:44.436Z,79.31
2022-08-21T05:34:46.085Z,78.80
2022-08-21T05:40:11.800Z,77.61
2022-08-21T05:45:10.073Z,77.77
2022-08-21T05:50:12.267Z,77.20
2022-08-21T05:55:14.040Z,77.24
2022-08-21T06:00:17.788Z,76.36
2022-08-21T06:05:24.979Z,76.69
2022-08-21T06:10:39.075Z,76.83
2022-08-21T06:15:41.323Z,77.24
2022-08-21T06:20:43.517Z,77.41
2022-08-21T06:25:45.212Z,77.50
2022-08-21T06:30:46.928Z,77.33
2022-08-21T06:35:49.321Z,76.97
2022-08-21T06:40:51.321Z,76.33
2022-08-21T06:45:54.296Z,76.17
2022-08-21T06:50:56.964Z,75.85
2022-08-21T06:55:58.626Z,75.93
2022-08-21T07:01:01.161Z,76.33
2022-08-21T07:06:04.813Z,76.38
2022-08-21T07:11:23.385Z,76.41
2022-08-21T07:16:25.652Z,76.35
2022-08-21T07:21:27.697Z,76.82
2022-08-21T07:26:29.340Z,75.92
2022-08-21T07:31:31.224Z,75.64
2022-08-21T07:36:33.321Z,75.66
2022-08-21T07:41:36.813Z,75.84
2022-08-21T07:46:38.446Z,75.54
2022-08-21T07:51:40.448Z,75.36
2022-08-21T07:56:42.260Z,74.95
2022-08-21T08:01:44.093Z,74.69
2022-08-21T08:06:46.472Z,75.06
2022-08-21T08:11:48.401Z,74.74
2022-08-21T08:16:50.385Z,74.87
2022-08-21T08:21:52.059Z,74.88
2022-08-21T08:26:55.165Z,75.19
2022-08-21T08:31:57.001Z,75.79
2022-08-21T08:37:02.165Z,76.59
2022-08-21T08:42:33.081Z,76.19
2022-08-21T08:47:40.426Z,77.09
2022-08-21T08:52:49.676Z,76.51
2022-08-21T08:57:52.326Z,76.38
2022-08-21T09:02:58.189Z,76.65
2022-08-21T09:08:22.208Z,78.21
2022-08-21T09:13:48.563Z,78.78
2022-08-21T09:19:25.162Z,78.99
2022-08-21T09:25:12.021Z,79.83
2022-08-21T09:30:14.134Z,79.88
2022-08-21T09:35:19.500Z,80.51
2022-08-21T09:40:36.918Z,79.81
2022-08-21T09:45:40.560Z,79.51
2022-08-21T09:50:43.886Z,78.94
2022-08-21T09:56:24.238Z,78.99
2022-08-21T10:01:27.252Z,79.41
2022-08-21T10:06:29.537Z,79.48
2022-08-21T10:11:34.223Z,79.40
2022-08-21T10:16:53.676Z,79.79
2022-08-21T10:22:08.557Z,79.79
2022-08-21T10:27:48.206Z,80.09
2022-08-21T10:32:59.810Z,79.98
2022-08-21T10:38:50.317Z,80.30
2022-08-21T10:43:51.236Z,80.02
2022-08-21T10:49:00.514Z,80.56
2022-08-21T10:54:23.496Z,80.05
2022-08-21T11:00:05.283Z,80.13
2022-08-21T11:05:13.911Z,79.99
2022-08-21T11:10:19.914Z,80.56
2022-08-21T11:15:36.036Z,80.94
2022-08-21T11:20:47.789Z,80.95
2022-08-21T11:26:02.613Z,80.16
2022-08-21T11:31:13.469Z,79.99
2022-08-21T11:37:08.450Z,77.56
2022-08-21T11:42:32.134Z,77.65
2022-08-21T11:47:53.686Z,77.80
2022-08-21T11:53:04.605Z,77.46
2022-08-21T11:58:17.689Z,76.92
2022-08-21T12:03:39.077Z,76.59
2022-08-21T12:08:47.152Z,77.03
2022-08-21T12:14:14.626Z,76.44
2022-08-21T12:19:25.528Z,76.20
2022-08-21T12:24:27.871Z,75.80
2022-08-21T12:29:32.760Z,75.08
2022-08-21T12:34:47.350Z,70.40
2022-08-21T12:39:53.723Z,69.33
2022-08-21T12:45:12.177Z,68.31
2022-08-21T12:50:37.536Z,69.95
2022-08-21T12:55:43.985Z,73.34
2022-08-21T13:00:51.412Z,74.34
2022-08-21T13:05:54.672Z,74.85
2022-08-21T13:11:13.798Z,74.79
2022-08-21T13:16:26.123Z,75.91
2022-08-21T13:21:34.870Z,76.28
2022-08-21T13:26:36.468Z,76.28
2022-08-21T13:31:43.352Z,76.55
2022-08-21T13:36:45.703Z,76.52
2022-08-21T13:41:51.285Z,77.30
2022-08-21T13:46:54.988Z,77.33
2022-08-21T13:51:56.845Z,77.41
2022-08-21T13:56:58.493Z,76.74
2022-08-21T14:02:09.430Z,76.68
2022-08-21T14:07:21.684Z,76.67
2022-08-21T14:12:42.210Z,77.07
2022-08-21T14:17:44.565Z,76.62
2022-08-21T14:22:48.273Z,76.13
2022-08-21T14:28:03.024Z,76.02
2022-08-21T14:33:14.372Z,76.47
2022-08-21T14:38:22.582Z,75.57
2022-08-21T14:43:27.290Z,74.85
2022-08-21T14:48:29.075Z,74.70
2022-08-21T14:53:30.704Z,74.59
2022-08-21T14:58:34.023Z,73.92
2022-08-21T15:03:36.583Z,74.03
2022-08-21T15:08:38.639Z,73.96
2022-08-21T15:13:41.219Z,73.85
2022-08-21T15:18:43.715Z,74.09
2022-08-21T15:23:45.594Z,74.01
2022-08-21T15:28:47.420Z,74.04
2022-08-21T15:33:49.108Z,73.66
2022-08-21T15:38:50.911Z,73.57
2022-08-21T15:43:54.326Z,73.71
2022-08-21T15:48:59.772Z,73.38
2022-08-21T15:54:01.757Z,73.59
2022-08-21T15:59:09.864Z,73.53
2022-08-21T16:04:16.363Z,73.62
2022-08-21T16:09:18.088Z,73.42
2022-08-21T16:14:19.943Z,73.19
2022-08-21T16:19:21.953Z,72.42
2022-08-21T16:24:23.629Z,72.50
2022-08-21T16:29:30.288Z,72.32
2022-08-21T16:34:32.192Z,72.78
2022-08-21T16:39:33.812Z,73.06
2022-08-21T16:44:35.580Z,72.88
2022-08-21T16:49:39.055Z,73.24
2022-08-21T16:54:43.421Z,73.07
2022-08-21T16:59:45.374Z,72.98
2022-08-21T17:04:47.012Z,73.28
2022-08-21T17:09:48.833Z,72.57
2022-08-21T17:14:50.689Z,72.05
2022-08-21T17:19:52.569Z,71.27
2022-08-21T17:24:54.422Z,70.54
2022-08-21T17:29:56.780Z,70.91
2022-08-21T17:34:58.905Z,70.07
2022-08-21T17:40:05.544Z,70.33
2022-08-21T17:45:11.309Z,70.58
2022-08-21T17:50:13.919Z,70.24
2022-08-21T17:55:17.266Z,70.06
2022-08-21T18:00:20.732Z,69.56
2022-08-21T18:05:22.608Z,69.36
2022-08-21T18:10:25.292Z,69.55
2022-08-21T18:15:27.050Z,69.86
2022-08-21T18:20:28.864Z,69.70
2022-08-21T18:25:30.831Z,70.19
2022-08-21T18:30:37.430Z,70.14
2022-08-21T18:35:39.717Z,70.53
2022-08-21T18:40:46.700Z,69.74
2022-08-21T18:45:48.496Z,69.65
2022-08-21T18:50:50.154Z,72.01
2022-08-21T18:55:52.300Z,76.20
2022-08-21T19:00:55.631Z,78.44
2022-08-21T19:05:57.593Z,78.43
2022-08-21T19:11:02.379Z,79.04
2022-08-21T19:16:05.769Z,78.60
2022-08-21T19:21:11.475Z,78.91
2022-08-21T19:26:13.572Z,81.02
2022-08-21T19:31:28.900Z,83.89
2022-08-21T19:36:32.477Z,87.80
2022-08-21T19:41:38.630Z,92.33
2022-08-21T19:46:44.254Z,93.52
2022-08-21T19:51:45.949Z,94.50
2022-08-21T19:56:48.620Z,95.42
2022-08-21T20:01:51.172Z,94.39
2022-08-21T20:06:53.193Z,93.84
2022-08-21T20:11:58.613Z,94.55
2022-08-21T20:17:08.477Z,93.49
2022-08-21T20:22:13.568Z,92.67
2022-08-21T20:27:21.936Z,93.48
2022-08-21T20:32:23.686Z,94.04
2022-08-21T20:42:50.988Z,94.50
2022-08-21T20:48:11.414Z,95.78
2022-08-21T20:53:43.650Z,96.03
2022-08-21T20:59:23.374Z,93.97
2022-08-21T21:04:35.062Z,94.22
2022-08-21T21:09:43.575Z,94.49
2022-08-21T21:14:48.652Z,94.80
2022-08-21T21:19:56.406Z,93.98
2022-08-21T21:25:07.213Z,94.19
2022-08-21T21:30:14.393Z,94.11
2022-08-21T21:35:32.494Z,94.44
2022-08-21T21:40:40.798Z,94.88
2022-08-21T21:45:53.497Z,95.13
2022-08-21T21:51:00.672Z,94.32
2022-08-21T21:56:29.412Z,94.71
2022-08-21T22:01:44.301Z,94.26
2022-08-21T22:07:11.919Z,93.93
2022-08-21T22:12:49.869Z,95.23
2022-08-21T22:18:08.705Z,94.78
2022-08-21T22:23:19.020Z,95.13
2022-08-21T22:28:26.979Z,94.87
2022-08-21T22:33:30.030Z,94.77
2022-08-21T22:38:36.925Z,95.15
2022-08-21T22:43:57.235Z,95.32
2022-08-21T22:49:07.583Z,95.33
2022-08-21T22:54:21.792Z,95.05
2022-08-21T22:59:26.816Z,95.19
2022-08-21T23:04:31.665Z,94.63
2022-08-21T23:09:47.256Z,95.02
2022-08-21T23:14:54.634Z,94.97
2022-08-21T23:20:10.270Z,94.86
2022-08-21T23:25:40.539Z,95.50
2022-08-21T23:31:00.489Z,95.98
2022-08-21T23:36:59.534Z,95.73
2022-08-21T23:42:33.472Z,95.51
2022-08-21T23:47:56.032Z,96.20
2022-08-21T23:53:38.447Z,96.51
2022-08-21T23:58:45.224Z,96.29
